createdAt,value
2022-10-22T00:00:32.922Z,17.74
2022-10-22T00:10:34.299Z,17.74
2022-10-22T00:20:35.668Z,17.71
2022-10-22T00:30:37.370Z,17.71
2022-10-22T00:40:38.735Z,17.71
2022-10-22T00:50:48.795Z,17.69
2022-10-22T01:00:50.255Z,17.69
2022-10-22T01:11:08.270Z,17.65
2022-10-22T01:21:09.951Z,17.66
2022-10-22T01:31:11.317Z,17.64
2022-10-22T01:41:12.814Z,17.62
2022-10-22T01:51:29.527Z,17.60
2022-10-22T02:01:32.366Z,17.58
2022-10-22T02:11:33.941Z,17.56
2022-10-22T02:21:35.317Z,17.54
2022-10-22T02:31:37.591Z,17.54
2022-10-22T02:41:39.169Z,17.56
2022-10-22T02:51:40.557Z,17.59
2022-10-22T03:01:42.007Z,17.60
2022-10-22T03:11:43.556Z,17.58
2022-10-22T03:21:53.781Z,17.59
2022-10-22T03:31:55.226Z,17.56
2022-10-22T03:41:56.767Z,17.52
2022-10-22T03:51:58.168Z,17.51
2022-10-22T04:01:59.623Z,17.48
2022-10-22T04:12:01.010Z,17.52
2022-10-22T04:22:02.410Z,17.69
2022-10-22T04:32:03.913Z,17.84
2022-10-22T04:42:05.378Z,17.94
2022-10-22T04:52:07.055Z,18.07
2022-10-22T05:02:08.444Z,18.20
2022-10-22T05:12:09.869Z,18.33
2022-10-22T05:22:11.283Z,18.39
2022-10-22T05:32:12.688Z,18.45
2022-10-22T05:42:14.169Z,18.55
2022-10-22T05:52:15.646Z,18.62
2022-10-22T06:02:17.180Z,18.69
2022-10-22T06:12:18.624Z,18.71
2022-10-22T06:22:20.149Z,18.73
2022-10-22T06:32:21.647Z,18.82
2022-10-22T06:42:23.011Z,18.94
2022-10-22T06:52:24.453Z,19.06
2022-10-22T07:02:25.830Z,19.22
2022-10-22T07:12:27.220Z,19.35
2022-10-22T07:22:28.617Z,19.65
2022-10-22T07:32:30.150Z,20.35
2022-10-22T07:42:31.542Z,21.27
2022-10-22T07:52:33.305Z,21.92
2022-10-22T08:02:34.938Z,22.46
2022-10-22T08:12:36.414Z,22.62
2022-10-22T08:22:37.811Z,22.18
2022-10-22T08:32:39.300Z,21.67
2022-10-22T08:43:05.821Z,21.25
2022-10-22T08:53:12.814Z,21.08
2022-10-22T09:03:20.128Z,20.92
2022-10-22T09:13:21.564Z,20.96
2022-10-22T09:23:39.857Z,21.07
2022-10-22T09:33:42.027Z,21.03
2022-10-22T09:43:43.420Z,20.98
2022-10-22T09:53:46.457Z,20.94
2022-10-22T10:03:48.446Z,20.89
2022-10-22T10:13:54.299Z,20.79
2022-10-22T10:24:21.041Z,20.81
2022-10-22T10:34:29.375Z,20.82
2022-10-22T10:44:36.806Z,20.75
2022-10-22T10:55:05.689Z,20.73
2022-10-22T11:05:25.665Z,20.75
2022-10-22T11:15:32.434Z,20.74
2022-10-22T11:25:39.425Z,20.86
2022-10-22T11:35:42.332Z,20.94
2022-10-22T11:45:43.928Z,20.88
2022-10-22T11:55:57.597Z,20.87
2022-10-22T12:06:04.882Z,20.85
2022-10-22T12:16:06.520Z,20.83
2022-10-22T12:26:28.223Z,20.90
2022-10-22T12:36:30.202Z,20.88
2022-10-22T12:46:33.432Z,21.00
2022-10-22T12:56:35.379Z,20.99
2022-10-22T13:06:36.853Z,20.98
2022-10-22T13:16:38.250Z,20.84
2022-10-22T13:26:39.743Z,20.81
2022-10-22T13:36:41.154Z,20.95
2022-10-22T13:46:43.297Z,20.89
2022-10-22T13:56:44.667Z,20.95
2022-10-22T14:06:46.096Z,20.95
2022-10-22T14:16:47.539Z,20.94
2022-10-22T14:26:48.928Z,20.97
2022-10-22T14:36:50.310Z,20.93
2022-10-22T14:46:54.179Z,20.83
2022-10-22T14:56:55.591Z,20.77
2022-10-22T15:06:57.158Z,20.73
2022-10-22T15:16:59.143Z,20.77
2022-10-22T15:27:00.680Z,20.71
2022-10-22T15:37:03.709Z,20.65
2022-10-22T15:47:07.133Z,20.56
2022-10-22T15:57:10.615Z,20.45
2022-10-22T16:07:12.053Z,20.32
2022-10-22T16:17:13.814Z,20.18
2022-10-22T16:27:15.238Z,20.08
2022-10-22T16:37:16.765Z,19.97
2022-10-22T16:47:18.212Z,19.83
2022-10-22T16:57:19.730Z,19.68
2022-10-22T17:07:21.303Z,19.59
2022-10-22T17:17:22.857Z,19.51
2022-10-22T17:27:24.370Z,19.45
2022-10-22T17:37:25.830Z,19.38
2022-10-22T17:47:27.208Z,19.25
2022-10-22T17:57:28.669Z,19.20
2022-10-22T18:07:30.072Z,19.14
2022-10-22T18:17:32.675Z,19.09
2022-10-22T18:27:37.084Z,19.04
2022-10-22T18:37:40.027Z,19.00
2022-10-22T18:47:41.851Z,18.95
2022-10-22T18:57:43.244Z,18.85
2022-10-22T19:07:44.807Z,18.78
2022-10-22T19:17:46.428Z,18.73
2022-10-22T19:27:48.745Z,18.66
2022-10-22T19:37:51.922Z,18.60
2022-10-22T19:47:53.403Z,18.54
2022-10-22T19:57:54.992Z,18.52
2022-10-22T20:07:56.393Z,18.49
2022-10-22T20:17:57.802Z,18.49
2022-10-22T20:27:59.189Z,18.47
2022-10-22T20:38:00.588Z,18.44
2022-10-22T20:48:02.998Z,18.42
2022-10-22T20:58:04.621Z,18.42
2022-10-22T21:08:06.039Z,18.38
2022-10-22T21:18:07.979Z,18.39
2022-10-22T21:28:09.453Z,18.38
2022-10-22T21:38:10.911Z,18.33
2022-10-22T21:48:13.551Z,18.30
2022-10-22T21:58:14.996Z,18.24
2022-10-22T22:08:16.494Z,18.20
2022-10-22T22:18:18.818Z,18.17
2022-10-22T22:28:20.196Z,18.17
2022-10-22T22:38:21.576Z,18.12
2022-10-22T22:48:22.958Z,18.08
2022-10-22T22:58:24.331Z,18.00
2022-10-22T23:08:25.710Z,17.95
2022-10-22T23:18:27.160Z,17.96
2022-10-22T23:28:28.586Z,17.94
2022-10-22T23:38:29.981Z,17.91
2022-10-22T23:48:31.379Z,17.87
2022-10-22T23:58:33.193Z,17.86
